Time,TemperatureF,DewpointF,PressureIn,WindDirection,WindDirectionDegrees,WindSpeedMPH,WindSpeedGustMPH,Humidity,HourlyPrecipIn,Conditions,Clouds,dailyrainin,SoftwareType,DateUTC
2013-06-17 00:09:00,67.4,64.0,29.80,WSW,246,0.0,5.0,87,0.00,,,0.00,weatherlink.com 1.10,2013-06-17 04:09:00,
2013-06-17 00:24:00,66.7,63.0,29.80,SW,233,0.0,3.0,89,0.00,,,0.00,weatherlink.com 1.10,2013-06-17 04:24:00,
2013-06-17 00:39:00,65.2,62.0,29.80,SW,232,0.0,1.0,89,0.00,,,0.00,weatherlink.com 1.10,2013-06-17 04:39:00,
2013-06-17 00:54:00,64.5,62.0,29.80,SW,232,0.0,1.0,92,0.00,,,0.00,weatherlink.com 1.10,2013-06-17 04:54:00,
2013-06-17 01:10:00,64.3,62.0,29.80,SW,232,0.0,1.0,93,0.00,,,0.00,weatherlink.com 1.10,2013-06-17 05:10:00,
2013-06-17 01:25:00,64.0,62.0,29.81,SW,232,0.0,1.0,93,0.00,,,0.00,weatherlink.com 1.10,2013-06-17 05:25:00,
2013-06-17 01:40:00,63.7,62.0,29.80,SW,233,0.0,0.0,94,0.00,,,0.00,weatherlink.com 1.10,2013-06-17 05:40:00,
2013-06-17 01:55:00,63.7,62.0,29.81,SW,233,0.0,1.0,95,0.00,,,0.00,weatherlink.com 1.10,2013-06-17 05:55:00,
2013-06-17 02:10:00,63.4,62.0,29.81,SW,233,0.0,0.0,94,0.00,,,0.00,weatherlink.com 1.10,2013-06-17 06:10:00,
2013-06-17 02:25:00,62.5,61.0,29.81,SW,233,0.0,0.0,95,0.00,,,0.00,weatherlink.com 1.10,2013-06-17 06:25:00,
2013-06-17 02:40:00,62.6,61.0,29.81,SW,233,0.0,0.0,95,0.00,,,0.00,weatherlink.com 1.10,2013-06-17 06:40:00,
2013-06-17 02:55:00,62.9,62.0,29.82,SW,233,0.0,0.0,96,0.00,,,0.00,weatherlink.com 1.10,2013-06-17 06:55:00,
2013-06-17 03:10:00,62.1,61.0,29.82,SW,233,0.0,1.0,95,0.00,,,0.00,weatherlink.com 1.10,2013-06-17 07:10:00,
2013-06-17 03:25:00,62.1,61.0,29.82,WSW,254,0.0,1.0,96,0.00,,,0.00,weatherlink.com 1.10,2013-06-17 07:25:00,
2013-06-17 03:40:00,62.0,61.0,29.82,WSW,255,0.0,1.0,96,0.00,,,0.00,weatherlink.com 1.10,2013-06-17 07:40:00,
2013-06-17 03:55:00,61.8,61.0,29.83,WSW,255,0.0,0.0,96,0.00,,,0.00,weatherlink.com 1.10,2013-06-17 07:55:00,
2013-06-17 04:10:00,61.2,60.0,29.83,WSW,249,0.0,2.0,96,0.00,,,0.00,weatherlink.com 1.10,2013-06-17 08:10:00,
2013-06-17 04:25:00,61.3,60.0,29.83,WSW,250,0.0,1.0,96,0.00,,,0.00,weatherlink.com 1.10,2013-06-17 08:25:00,
2013-06-17 04:40:00,61.6,61.0,29.83,WSW,250,0.0,1.0,97,0.00,,,0.00,weatherlink.com 1.10,2013-06-17 08:40:00,
2013-06-17 04:55:00,61.7,61.0,29.84,WSW,255,0.0,3.0,97,0.00,,,0.00,weatherlink.com 1.10,2013-06-17 08:55:00,
2013-06-17 05:10:00,-999.0,-99.9,29.83,North,-999,-999.0,-999.0,-999,0.00,,,0.00,weatherlink.com 1.10,2013-06-17 09:10:00,
2013-06-17 05:25:00,-999.0,-99.9,29.84,North,-999,-999.0,-999.0,-999,0.00,,,0.00,weatherlink.com 1.10,2013-06-17 09:25:00,
2013-06-17 05:40:00,-999.0,-99.9,29.83,North,-999,-999.0,-999.0,-999,0.00,,,0.00,weatherlink.com 1.10,2013-06-17 09:40:00,
2013-06-17 05:55:00,-999.0,-99.9,29.83,North,-999,-999.0,-999.0,-999,0.00,,,0.00,weatherlink.com 1.10,2013-06-17 09:55:00,
2013-06-17 06:10:00,-999.0,-99.9,29.84,North,-999,-999.0,-999.0,-999,0.00,,,0.00,weatherlink.com 1.10,2013-06-17 10:10:00,
2013-06-17 06:25:00,-999.0,-99.9,29.84,North,-999,-999.0,-999.0,-999,0.00,,,0.00,weatherlink.com 1.10,2013-06-17 10:25:00,
2013-06-17 06:40:00,-999.0,-99.9,29.85,North,-999,-999.0,-999.0,-999,0.00,,,0.00,weatherlink.com 1.10,2013-06-17 10:40:00,
2013-06-17 06:55:00,-999.0,-99.9,29.86,North,-999,-999.0,-999.0,-999,0.00,,,0.00,weatherlink.com 1.10,2013-06-17 10:55:00,
2013-06-17 07:11:00,-999.0,-99.9,29.87,North,-999,-999.0,-999.0,-999,0.00,,,0.00,weatherlink.com 1.10,2013-06-17 11:11:00,
2013-06-17 07:26:00,-999.0,-99.9,29.87,North,-999,-999.0,-999.0,-999,0.00,,,0.00,weatherlink.com 1.10,2013-06-17 11:26:00,
2013-06-17 07:41:00,-999.0,-99.9,29.87,North,-999,-999.0,-999.0,-999,0.00,,,0.00,weatherlink.com 1.10,2013-06-17 11:41:00,
2013-06-17 07:56:00,65.5,65.0,29.87,WSW,245,1.0,4.0,97,0.00,,,0.00,weatherlink.com 1.10,2013-06-17 11:56:00,
2013-06-17 08:11:00,66.2,65.0,29.87,WSW,253,1.0,2.0,96,0.00,,,0.00,weatherlink.com 1.10,2013-06-17 12:11:00,
2013-06-17 08:26:00,66.7,65.0,29.87,SW,236,1.0,1.0,95,0.00,,,0.00,weatherlink.com 1.10,2013-06-17 12:26:00,
2013-06-17 08:41:00,68.5,67.0,29.87,WSW,250,2.0,3.0,94,0.00,,,0.00,weatherlink.com 1.10,2013-06-17 12:41:00,
2013-06-17 08:56:00,70.1,68.0,29.87,WSW,245,1.0,2.0,92,0.00,,,0.00,weatherlink.com 1.10,2013-06-17 12:56:00,
2013-06-17 09:11:00,71.8,69.0,29.86,SW,235,1.0,5.0,90,0.00,,,0.00,weatherlink.com 1.10,2013-06-17 13:11:00,
2013-06-17 09:26:00,72.8,68.0,29.86,WSW,252,2.0,8.0,86,0.00,,,0.00,weatherlink.com 1.10,2013-06-17 13:26:00,
2013-06-17 09:41:00,73.3,69.0,29.86,WSW,252,1.0,7.0,85,0.00,,,0.00,weatherlink.com 1.10,2013-06-17 13:41:00,
2013-06-17 09:56:00,74.6,69.0,29.86,WSW,252,0.0,7.0,83,0.00,,,0.00,weatherlink.com 1.10,2013-06-17 13:56:00,
2013-06-17 10:11:00,76.1,69.0,29.86,West,260,3.0,5.0,79,0.00,,,0.00,weatherlink.com 1.10,2013-06-17 14:11:00,
2013-06-17 10:26:00,77.0,69.0,29.86,WSW,252,3.0,7.0,76,0.00,,,0.00,weatherlink.com 1.10,2013-06-17 14:26:00,
2013-06-17 10:41:00,78.4,70.0,29.86,SW,232,1.0,9.0,75,0.00,,,0.00,weatherlink.com 1.10,2013-06-17 14:41:00,
2013-06-17 10:56:00,78.2,68.0,29.86,WSW,240,1.0,3.0,72,0.00,,,0.00,weatherlink.com 1.10,2013-06-17 14:56:00,
2013-06-17 11:11:00,76.3,68.0,29.86,SW,214,1.0,3.0,75,0.00,,,0.00,weatherlink.com 1.10,2013-06-17 15:11:00,
2013-06-17 11:26:00,76.7,69.0,29.85,WSW,245,0.0,3.0,76,0.00,,,0.00,weatherlink.com 1.10,2013-06-17 15:26:00,
2013-06-17 11:41:00,77.8,69.0,29.85,WSW,242,0.0,2.0,73,0.00,,,0.00,weatherlink.com 1.10,2013-06-17 15:41:00,
2013-06-17 11:56:00,78.5,68.0,29.85,SW,232,1.0,2.0,71,0.00,,,0.00,weatherlink.com 1.10,2013-06-17 15:56:00,
2013-06-17 12:11:00,78.5,69.0,29.85,WSW,239,0.0,1.0,73,0.00,,,0.00,weatherlink.com 1.10,2013-06-17 16:11:00,
2013-06-17 12:26:00,78.0,70.0,29.85,SW,222,0.0,2.0,76,0.00,,,0.00,weatherlink.com 1.10,2013-06-17 16:26:00,
2013-06-17 12:41:00,78.6,70.0,29.86,SW,224,0.0,3.0,74,0.00,,,0.00,weatherlink.com 1.10,2013-06-17 16:41:00,
2013-06-17 12:56:00,79.3,71.0,29.86,SW,236,0.0,1.0,75,0.00,,,0.00,weatherlink.com 1.10,2013-06-17 16:56:00,
2013-06-17 13:11:00,81.1,71.0,29.86,SW,219,0.0,1.0,71,0.00,,,0.00,weatherlink.com 1.10,2013-06-17 17:11:00,
2013-06-17 13:26:00,76.3,67.0,29.85,SSW,194,0.0,3.0,72,0.00,,,0.00,weatherlink.com 1.10,2013-06-17 17:26:00,
2013-06-17 13:41:00,75.6,69.0,29.85,SSW,198,0.0,2.0,81,0.00,,,0.00,weatherlink.com 1.10,2013-06-17 17:41:00,
2013-06-17 13:56:00,79.9,71.0,29.84,SSW,208,0.0,1.0,74,0.00,,,0.00,weatherlink.com 1.10,2013-06-17 17:56:00,
2013-06-17 14:11:00,82.3,70.0,29.84,WSW,249,0.0,1.0,67,0.00,,,0.00,weatherlink.com 1.10,2013-06-17 18:11:00,
2013-06-17 14:27:00,80.0,69.0,29.84,SW,235,0.0,2.0,68,0.00,,,0.00,weatherlink.com 1.10,2013-06-17 18:27:00,
2013-06-17 14:42:00,77.7,68.0,29.84,SW,235,1.0,3.0,73,0.00,,,0.00,weatherlink.com 1.10,2013-06-17 18:42:00,
2013-06-17 14:57:00,76.1,67.0,29.83,WSW,256,2.0,3.0,74,0.00,,,0.00,weatherlink.com 1.10,2013-06-17 18:57:00,
2013-06-17 15:12:00,73.9,66.0,29.82,WSW,245,0.0,2.0,77,0.00,,,0.00,weatherlink.com 1.10,2013-06-17 19:12:00,
2013-06-17 15:27:00,70.7,65.0,29.82,SW,236,0.0,3.0,82,0.00,,,0.00,weatherlink.com 1.10,2013-06-17 19:27:00,
2013-06-17 15:42:00,68.9,65.0,29.82,WSW,245,0.0,3.0,86,0.00,,,0.00,weatherlink.com 1.10,2013-06-17 19:42:00,
2013-06-17 15:57:00,68.8,65.0,29.82,WSW,252,1.0,3.0,88,0.00,,,0.00,weatherlink.com 1.10,2013-06-17 19:57:00,
2013-06-17 16:12:00,73.0,68.0,29.82,WSW,238,1.0,4.0,83,0.00,,,0.00,weatherlink.com 1.10,2013-06-17 20:12:00,
2013-06-17 16:27:00,73.7,67.0,29.82,WSW,245,0.0,2.0,79,0.00,,,0.00,weatherlink.com 1.10,2013-06-17 20:27:00,
2013-06-17 16:42:00,73.7,67.0,29.81,WSW,248,1.0,5.0,79,0.00,,,0.00,weatherlink.com 1.10,2013-06-17 20:42:00,
2013-06-17 16:57:00,73.8,67.0,29.81,WSW,243,0.0,5.0,79,0.00,,,0.00,weatherlink.com 1.10,2013-06-17 20:57:00,
2013-06-17 17:12:00,72.3,65.0,29.81,WSW,248,0.0,2.0,78,0.00,,,0.00,weatherlink.com 1.10,2013-06-17 21:12:00,
2013-06-17 17:27:00,71.0,66.0,29.81,WSW,246,0.0,2.0,84,0.00,,,0.00,weatherlink.com 1.10,2013-06-17 21:27:00,
2013-06-17 17:42:00,73.6,67.0,29.81,WSW,248,0.0,3.0,80,0.00,,,0.00,weatherlink.com 1.10,2013-06-17 21:42:00,
2013-06-17 17:57:00,73.3,66.0,29.81,WSW,250,1.0,3.0,79,0.00,,,0.00,weatherlink.com 1.10,2013-06-17 21:57:00,
2013-06-17 18:12:00,71.8,65.0,29.81,WSW,253,1.0,2.0,80,0.00,,,0.00,weatherlink.com 1.10,2013-06-17 22:12:00,
2013-06-17 18:27:00,69.4,64.0,29.81,WSW,248,1.0,2.0,84,0.00,,,0.00,weatherlink.com 1.10,2013-06-17 22:27:00,
2013-06-17 18:42:00,67.7,63.0,29.82,WSW,250,0.0,5.0,86,0.00,,,0.00,weatherlink.com 1.10,2013-06-17 22:42:00,
2013-06-17 18:57:00,67.0,64.0,29.83,WSW,248,0.0,1.0,89,0.00,,,0.00,weatherlink.com 1.10,2013-06-17 22:57:00,
2013-06-17 19:12:00,68.1,65.0,29.86,SW,221,0.0,6.0,90,0.00,,,0.00,weatherlink.com 1.10,2013-06-17 23:12:00,
2013-06-17 19:27:00,69.7,64.0,29.87,SW,214,0.0,2.0,81,0.00,,,0.00,weatherlink.com 1.10,2013-06-17 23:27:00,
2013-06-17 19:42:00,69.6,63.0,29.87,SW,225,0.0,1.0,80,0.00,,,0.00,weatherlink.com 1.10,2013-06-17 23:42:00,
2013-06-17 19:57:00,68.3,63.0,29.88,SSW,210,0.0,1.0,83,0.00,,,0.00,weatherlink.com 1.10,2013-06-17 23:57:00,
2013-06-17 20:12:00,66.6,63.0,29.89,SW,233,0.0,1.0,87,0.00,,,0.00,weatherlink.com 1.10,2013-06-18 00:12:00,
2013-06-17 20:27:00,65.2,63.0,29.88,SW,228,0.0,1.0,91,0.00,,,0.00,weatherlink.com 1.10,2013-06-18 00:27:00,
2013-06-17 20:42:00,64.5,63.0,29.87,SW,226,0.0,0.0,93,0.00,,,0.00,weatherlink.com 1.10,2013-06-18 00:42:00,
2013-06-17 20:57:00,64.1,62.0,29.86,WSW,239,0.0,0.0,94,0.00,,,0.00,weatherlink.com 1.10,2013-06-18 00:57:00,
2013-06-17 21:12:00,63.8,62.0,29.88,WSW,239,0.0,0.0,94,0.00,,,0.00,weatherlink.com 1.10,2013-06-18 01:12:00,
2013-06-17 21:27:00,63.2,62.0,29.89,WSW,240,0.0,0.0,95,0.00,,,0.00,weatherlink.com 1.10,2013-06-18 01:27:00,
2013-06-17 21:43:00,62.9,62.0,29.88,WSW,239,0.0,0.0,95,0.00,,,0.00,weatherlink.com 1.10,2013-06-18 01:43:00,
2013-06-17 21:57:00,62.5,61.0,29.89,WSW,239,0.0,0.0,95,0.00,,,0.00,weatherlink.com 1.10,2013-06-18 01:57:00,
2013-06-17 22:12:00,62.7,62.0,29.89,WSW,239,0.0,1.0,96,0.00,,,0.00,weatherlink.com 1.10,2013-06-18 02:12:00,
2013-06-17 22:27:00,62.8,62.0,29.90,WSW,239,0.0,0.0,96,0.00,,,0.00,weatherlink.com 1.10,2013-06-18 02:27:00,
2013-06-17 22:43:00,62.8,62.0,29.90,WSW,239,0.0,0.0,96,0.00,,,0.00,weatherlink.com 1.10,2013-06-18 02:43:00,
2013-06-17 22:57:00,62.8,62.0,29.90,WSW,239,0.0,0.0,96,0.00,,,0.00,weatherlink.com 1.10,2013-06-18 02:57:00,
2013-06-17 23:12:00,62.7,62.0,29.90,WSW,239,0.0,0.0,96,0.00,,,0.00,weatherlink.com 1.10,2013-06-18 03:12:00,
2013-06-17 23:27:00,62.8,62.0,29.89,WSW,239,0.0,0.0,96,0.00,,,0.00,weatherlink.com 1.10,2013-06-18 03:27:00,
2013-06-17 23:44:00,62.8,62.0,29.90,WSW,239,0.0,0.0,96,0.00,,,0.00,weatherlink.com 1.10,2013-06-18 03:44:00,
2013-06-17 23:57:00,62.8,62.0,29.89,WSW,239,0.0,0.0,96,0.00,,,0.00,weatherlink.com 1.10,2013-06-18 03:57:00,